Time;durP1;ratioP1;P1;durP2;ratioP2;P2;SDS_P1;SDS_P2;PMS_P1;PMS_P2;Temp;Humidity;BMP_temperature;BMP_pressure;BME280_temperature;BME280_humidity;BME280_pressure;Samples;Min_cycle;Max_cycle;Signal;HPM_P1;HPM_P2
2023/06/04 00:01:02;;;;;;;3.22;1.17;;;;;;;10.89;76.85;101247.13;5172819;28;20339;-76
2023/06/04 00:03:34;;;;;;;1.67;0.95;;;;;;;10.96;77.26;101243.44;5170347;28;20030;-74
2023/06/04 00:06:04;;;;;;;3.35;1.10;;;;;;;11.19;75.69;101237.56;5169610;28;20033;-76
2023/06/04 00:08:34;;;;;;;1.20;0.82;;;;;;;11.18;76.63;101241.09;5173256;28;20033;-75
2023/06/04 00:11:05;;;;;;;2.10;1.20;;;;;;;11.45;74.87;101239.47;5171344;28;20029;-76
2023/06/04 00:13:35;;;;;;;1.65;0.85;;;;;;;10.88;78.23;101240.19;5174764;28;20379;-74
2023/06/04 00:16:06;;;;;;;2.33;1.20;;;;;;;11.00;77.55;101245.94;5173398;28;20029;-74
2023/06/04 00:18:36;;;;;;;2.05;0.85;;;;;;;10.72;78.03;101250.16;5172165;28;20036;-75
2023/06/04 00:21:06;;;;;;;2.45;1.27;;;;;;;10.51;78.70;101255.94;5169952;28;20487;-72
2023/06/04 00:23:36;;;;;;;1.73;0.80;;;;;;;10.09;81.37;101256.94;5171311;28;20034;-75
2023/06/04 00:26:07;;;;;;;2.78;0.90;;;;;;;9.67;82.55;101262.22;5170587;28;20846;-72
2023/06/04 00:28:37;;;;;;;3.47;0.80;;;;;;;10.05;82.64;101254.44;5171637;28;20192;-76
2023/06/04 00:31:07;;;;;;;1.50;0.80;;;;;;;10.41;79.74;101253.56;5169217;28;20562;-72
2023/06/04 00:33:39;;;;;;;2.83;1.20;;;;;;;10.06;81.86;101258.75;5162128;28;20508;-75
2023/06/04 00:36:09;;;;;;;3.15;1.52;;;;;;;10.06;82.40;101261.38;5171200;28;20289;-74
2023/06/04 00:38:39;;;;;;;2.95;1.48;;;;;;;9.73;83.32;101267.28;5166765;28;20018;-75
2023/06/04 00:41:10;;;;;;;2.70;1.35;;;;;;;9.80;83.23;101264.53;5149227;28;20102;-75
2023/06/04 00:43:40;;;;;;;4.40;1.50;;;;;;;10.03;81.85;101264.06;5163296;28;20426;-75
2023/06/04 00:46:17;;;;;;;4.05;1.30;;;;;;;10.37;80.36;101258.00;5169953;28;20038;-71
2023/06/04 00:48:47;;;;;;;5.68;1.75;;;;;;;10.26;80.29;101259.16;5171044;28;20034;-72
2023/06/04 00:51:20;;;;;;;5.90;1.75;;;;;;;10.19;79.95;101261.06;5170390;28;20029;-74
2023/06/04 00:53:51;;;;;;;4.38;2.10;;;;;;;10.09;80.39;101267.41;5169845;28;20026;-71
2023/06/04 00:56:21;;;;;;;8.05;2.50;;;;;;;10.40;79.81;101267.53;5171222;28;20408;-75
2023/06/04 00:58:53;;;;;;;4.70;1.73;;;;;;;10.31;79.11;101262.53;5170629;28;20029;-72
2023/06/04 01:01:31;;;;;;;3.75;1.48;;;;;;;10.16;80.55;101258.50;5171844;28;20084;-74
2023/06/04 01:04:04;;;;;;;3.47;1.17;;;;;;;10.02;80.42;101264.97;5165441;28;20030;-76
2023/06/04 01:06:42;;;;;;;1.80;1.00;;;;;;;10.10;80.68;101263.88;5172960;28;20029;-74
2023/06/04 01:09:13;;;;;;;2.70;1.00;;;;;;;10.16;80.76;101260.28;5170466;28;20515;-73
2023/06/04 01:11:44;;;;;;;2.25;0.90;;;;;;;10.39;79.75;101260.59;5174260;28;20507;-73
2023/06/04 01:14:15;;;;;;;6.97;1.75;;;;;;;10.40;77.96;101257.09;5171838;28;20037;-72
2023/06/04 01:17:01;;;;;;;3.42;1.70;;;;;;;10.49;79.26;101254.28;5174158;28;20472;-74
2023/06/04 01:19:59;;;;;;;3.90;1.30;;;;;;;9.99;81.63;101258.00;5171845;28;20030;-73
2023/06/04 01:22:41;;;;;;;12.18;4.10;;;;;;;9.38;83.56;101256.72;5166261;28;20054;-74
2023/06/04 01:25:21;;;;;;;7.63;2.65;;;;;;;9.21;86.11;101259.69;5170604;28;20030;-75
2023/06/04 01:27:55;;;;;;;4.80;1.98;;;;;;;9.21;86.42;101256.19;5167920;28;20519;-74
2023/06/04 01:30:32;;;;;;;3.47;1.70;;;;;;;9.53;85.00;101253.81;5173192;28;20519;-73
2023/06/04 01:33:03;;;;;;;5.72;2.65;;;;;;;9.68;81.76;101243.91;5168998;28;20026;-74
2023/06/04 01:35:33;;;;;;;7.50;3.08;;;;;;;9.75;81.23;101249.84;5169817;28;20121;-75
2023/06/04 01:38:04;;;;;;;59.00;20.10;;;;;;;9.62;82.90;101243.19;5170989;28;20100;-74
2023/06/04 01:40:35;;;;;;;28.20;8.90;;;;;;;9.58;83.62;101249.34;5174260;28;20021;-74
2023/06/04 01:43:05;;;;;;;17.88;6.20;;;;;;;9.76;82.24;101239.38;5168710;28;20045;-74
2023/06/04 01:45:35;;;;;;;10.82;3.88;;;;;;;9.78;82.11;101250.66;5170949;28;20030;-74
2023/06/04 01:48:06;;;;;;;6.50;2.63;;;;;;;9.66;81.95;101240.47;5170959;28;20152;-74
2023/06/04 01:50:36;;;;;;;6.43;2.25;;;;;;;9.55;83.06;101242.47;5174405;28;20036;-75
2023/06/04 01:53:06;;;;;;;4.40;1.70;;;;;;;9.57;82.07;101245.00;5158213;28;20026;-74
2023/06/04 01:55:37;;;;;;;3.75;1.65;;;;;;;9.25;83.38;101248.28;5155567;28;20042;-74
2023/06/04 01:58:09;;;;;;;5.10;1.95;;;;;;;8.89;85.45;101253.31;5153593;28;20134;-71
2023/06/04 02:00:39;;;;;;;2.75;1.40;;;;;;;8.87;85.93;101242.06;5157262;28;20050;-73
2023/06/04 02:03:10;;;;;;;2.97;1.30;;;;;;;8.86;86.44;101245.56;5160612;28;20282;-74
2023/06/04 02:05:41;;;;;;;3.70;1.10;;;;;;;9.07;85.88;101237.34;5159783;28;20105;-75
2023/06/04 02:08:12;;;;;;;3.08;1.00;;;;;;;9.37;84.33;101236.75;5159456;28;20066;-75
2023/06/04 02:10:42;;;;;;;2.63;1.30;;;;;;;9.39;83.56;101240.19;5164444;28;20035;-74
2023/06/04 02:13:12;;;;;;;2.20;1.10;;;;;;;9.18;84.05;101248.44;5163027;28;20060;-74
2023/06/04 02:15:43;;;;;;;2.33;0.77;;;;;;;8.94;87.22;101246.28;5166803;28;20503;-74
2023/06/04 02:18:20;;;;;;;2.00;0.80;;;;;;;9.28;84.05;101234.34;5162995;28;20038;-74
2023/06/04 02:20:51;;;;;;;1.60;0.80;;;;;;;8.93;84.78;101238.50;5162370;28;20029;-74
2023/06/04 02:23:21;;;;;;;1.90;0.90;;;;;;;9.06;83.57;101245.19;5165328;28;20373;-74
2023/06/04 02:25:51;;;;;;;2.10;1.10;;;;;;;8.85;85.27;101238.63;5161739;28;20487;-74
2023/06/04 02:28:22;;;;;;;2.80;0.95;;;;;;;8.89;84.29;101242.03;5159719;28;20054;-74
2023/06/04 02:30:53;;;;;;;3.63;0.90;;;;;;;8.93;84.03;101243.69;5164558;28;20034;-75
2023/06/04 02:33:23;;;;;;;2.70;0.95;;;;;;;8.92;83.99;101242.81;5165172;28;20032;-74
2023/06/04 02:35:53;;;;;;;1.58;0.80;;;;;;;8.68;85.28;101235.47;5168608;28;20038;-75
2023/06/04 02:38:24;;;;;;;2.10;0.90;;;;;;;8.62;86.26;101239.91;5159117;28;20184;-75
2023/06/04 02:40:54;;;;;;;1.50;0.90;;;;;;;8.66;86.30;101236.34;5167289;28;20113;-73
2023/06/04 02:43:25;;;;;;;2.05;0.98;;;;;;;8.56;86.18;101242.63;5161776;28;20569;-74
2023/06/04 02:45:55;;;;;;;2.30;0.80;;;;;;;8.65;85.81;101238.13;5165633;28;20224;-72
2023/06/04 02:48:25;;;;;;;1.80;0.65;;;;;;;8.55;86.97;101246.13;5157051;28;20476;-72
2023/06/04 02:50:56;;;;;;;2.85;0.95;;;;;;;8.52;86.31;101254.00;5164288;28;20053;-71
2023/06/04 02:53:26;;;;;;;2.88;0.90;;;;;;;8.50;86.56;101256.59;5164804;28;20085;-71
2023/06/04 02:55:57;;;;;;;3.00;1.00;;;;;;;8.19;88.73;101251.91;5166527;28;20034;-74
2023/06/04 02:58:28;;;;;;;2.28;0.70;;;;;;;8.12;89.98;101251.13;5164570;28;20488;-74
2023/06/04 03:00:59;;;;;;;5.05;1.00;;;;;;;8.13;90.57;101249.34;5167555;28;20029;-74
2023/06/04 03:03:31;;;;;;;2.33;0.77;;;;;;;8.04;89.14;101250.34;5161096;28;20076;-74
2023/06/04 03:06:04;;;;;;;4.10;1.00;;;;;;;8.35;88.68;101254.25;5167600;28;20514;-74
2023/06/04 03:08:34;;;;;;;2.10;0.90;;;;;;;8.38;86.38;101259.41;5163042;28;20039;-75
2023/06/04 03:11:05;;;;;;;1.60;0.90;;;;;;;8.39;86.97;101250.69;5163954;28;20399;-75
2023/06/04 03:13:35;;;;;;;1.88;0.90;;;;;;;8.52;87.54;101257.44;5163586;28;20034;-72
2023/06/04 03:16:12;;;;;;;1.80;0.73;;;;;;;8.07;88.28;101247.69;5167946;28;20393;-74
2023/06/04 03:18:44;;;;;;;2.20;0.80;;;;;;;8.02;90.99;101249.50;5168892;28;20057;-73
2023/06/04 03:21:14;;;;;;;3.25;1.10;;;;;;;7.97;89.94;101246.13;5168361;28;20089;-73
2023/06/04 03:23:44;;;;;;;2.33;0.98;;;;;;;7.94;91.12;101256.59;5168580;28;20105;-73
2023/06/04 03:26:15;;;;;;;2.15;0.90;;;;;;;7.93;91.59;101261.78;5163243;28;20030;-74
2023/06/04 03:28:45;;;;;;;2.67;0.90;;;;;;;8.23;90.97;101257.03;5167125;28;20135;-74
2023/06/04 03:31:15;;;;;;;2.83;1.33;;;;;;;8.24;87.74;101253.53;5163562;28;20116;-74
2023/06/04 03:33:45;;;;;;;1.77;0.80;;;;;;;8.31;88.16;101251.72;5168009;28;20448;-74
2023/06/04 03:36:16;;;;;;;1.02;0.70;;;;;;;8.22;90.36;101251.88;5167237;28;20029;-74
2023/06/04 03:38:46;;;;;;;7.07;0.70;;;;;;;8.19;90.97;101252.75;5161927;28;20487;-75
2023/06/04 03:41:17;;;;;;;2.42;0.90;;;;;;;8.38;89.37;101246.38;5162842;28;20038;-74
2023/06/04 03:43:47;;;;;;;1.58;0.73;;;;;;;8.39;90.48;101255.91;5163499;28;20041;-75
2023/06/04 03:46:18;;;;;;;2.35;1.05;;;;;;;8.43;90.53;101252.41;5164474;28;20111;-74
2023/06/04 03:48:48;;;;;;;1.30;0.82;;;;;;;8.58;90.36;101251.28;5166690;28;20499;-71
2023/06/04 03:51:18;;;;;;;2.30;1.15;;;;;;;8.40;90.48;101257.63;5164243;28;20034;-74
2023/06/04 03:53:48;;;;;;;2.08;1.00;;;;;;;8.44;91.63;101263.66;5189320;23;20570;-74
2023/06/04 03:56:19;;;;;;;2.95;0.88;;;;;;;8.46;92.00;101259.28;5184962;28;20304;-73
2023/06/04 03:58:50;;;;;;;2.08;1.05;;;;;;;8.47;92.09;101251.47;5186063;28;20022;-74
2023/06/04 04:01:21;;;;;;;1.15;0.73;;;;;;;8.33;92.67;101266.44;5184517;28;20025;-74
2023/06/04 04:03:52;;;;;;;2.97;1.55;;;;;;;8.58;91.54;101259.09;5179035;28;20455;-73
2023/06/04 04:06:23;;;;;;;3.42;0.98;;;;;;;8.58;89.68;101259.09;5165872;28;20088;-74
2023/06/04 04:08:53;;;;;;;3.70;1.20;;;;;;;8.55;89.69;101252.19;5166612;28;20033;-73
2023/06/04 04:11:25;;;;;;;2.05;0.98;;;;;;;8.72;90.59;101260.56;5167504;28;20046;-73
2023/06/04 04:13:56;;;;;;;2.88;0.98;;;;;;;9.23;88.36;101255.28;5167712;28;20022;-73
2023/06/04 04:16:27;;;;;;;2.92;0.80;;;;;;;9.41;84.77;101261.88;5165459;28;20146;-73
2023/06/04 04:18:57;;;;;;;1.70;0.80;;;;;;;9.47;87.53;101261.78;5163788;28;20018;-74
2023/06/04 04:21:28;;;;;;;1.55;0.90;;;;;;;9.52;85.70;101270.34;5163925;28;20100;-73
2023/06/04 04:23:58;;;;;;;1.83;1.08;;;;;;;9.76;86.88;101265.50;5170229;28;20037;-72
2023/06/04 04:26:28;;;;;;;1.95;1.00;;;;;;;9.82;86.10;101261.91;5163155;28;20042;-74
2023/06/04 04:28:59;;;;;;;1.85;0.77;;;;;;;9.68;86.62;101266.53;5167321;28;20030;-73
2023/06/04 04:31:30;;;;;;;2.17;1.13;;;;;;;10.03;85.48;101261.44;5167529;28;20037;-74
2023/06/04 04:34:07;;;;;;;1.30;0.65;;;;;;;10.16;83.71;101263.75;5169140;28;20037;-73
2023/06/04 04:36:40;;;;;;;4.90;1.02;;;;;;;10.17;85.21;101268.06;5167386;28;20022;-74
2023/06/04 04:39:10;;;;;;;1.58;0.90;;;;;;;11.91;81.07;101247.69;5164592;28;20026;-74
2023/06/04 04:41:40;;;;;;;3.13;0.93;;;;;;;13.75;73.27;101242.19;5171327;28;20484;-75
2023/06/04 04:44:11;;;;;;;3.28;0.93;;;;;;;15.17;67.96;101238.06;5166459;28;20033;-75
2023/06/04 04:46:41;;;;;;;1.50;0.73;;;;;;;16.79;62.82;101242.59;5167701;28;20503;-75
2023/06/04 04:49:11;;;;;;;3.78;0.80;;;;;;;18.16;58.72;101237.88;5163841;28;20072;-72
2023/06/04 04:51:42;;;;;;;3.60;0.87;;;;;;;17.47;60.15;101242.56;5167263;28;20034;-72
2023/06/04 04:54:12;;;;;;;1.55;0.80;;;;;;;17.95;58.97;101239.06;5117505;28;1359829;-72
2023/06/04 04:56:42;;;;;;;1.67;0.85;;;;;;;18.61;56.66;101240.59;5170993;28;20404;-72
2023/06/04 04:59:13;;;;;;;1.70;0.95;;;;;;;20.30;53.03;101233.53;5165299;28;20030;-72
2023/06/04 05:01:43;;;;;;;1.08;0.70;;;;;;;19.98;53.42;101240.00;5170845;28;20029;-73
2023/06/04 05:04:13;;;;;;;3.67;0.97;;;;;;;21.82;49.15;101231.88;5162388;28;20217;-72
2023/06/04 05:06:43;;;;;;;4.97;1.13;;;;;;;19.78;53.80;101240.41;5164887;28;20288;-72
2023/06/04 05:09:15;;;;;;;3.53;1.07;;;;;;;23.76;48.50;101222.25;5163325;28;20384;-73
2023/06/04 05:11:46;;;;;;;1.95;0.70;;;;;;;22.40;51.25;101229.38;5164680;28;20280;-73
2023/06/04 05:14:17;;;;;;;2.28;0.80;;;;;;;21.42;52.49;101241.75;5161450;28;20109;-72
2023/06/04 05:16:48;;;;;;;6.15;1.10;;;;;;;20.53;54.13;101235.53;5164751;28;20092;-73
2023/06/04 05:19:19;;;;;;;1.13;0.73;;;;;;;22.63;50.69;101233.84;5166012;28;20014;-72
2023/06/04 05:21:50;;;;;;;1.77;0.90;;;;;;;21.45;51.93;101246.03;5169190;28;20022;-73
2023/06/04 05:24:21;;;;;;;1.02;0.70;;;;;;;22.06;50.54;101235.44;5169831;28;20030;-73
2023/06/04 05:26:51;;;;;;;4.05;0.60;;;;;;;20.93;53.62;101245.25;5171727;28;20022;-73
2023/06/04 05:29:22;;;;;;;1.85;0.80;;;;;;;22.29;50.46;101237.28;5166794;28;20029;-72
2023/06/04 05:31:53;;;;;;;1.48;0.80;;;;;;;23.19;47.42;101229.44;5168925;28;20468;-72
2023/06/04 05:34:23;;;;;;;3.70;0.87;;;;;;;22.70;48.58;101238.63;5165915;28;20121;-72
2023/06/04 05:36:53;;;;;;;1.20;0.70;;;;;;;23.11;45.96;101234.53;5173125;28;20650;-73
2023/06/04 05:39:24;;;;;;;1.10;0.70;;;;;;;22.40;48.84;101238.22;5169646;28;20307;-73
2023/06/04 05:41:54;;;;;;;2.38;1.02;;;;;;;23.05;48.24;101244.78;5171995;28;20132;-72
2023/06/04 05:44:24;;;;;;;1.55;1.00;;;;;;;23.86;46.58;101244.59;5171894;28;20061;-73
2023/06/04 05:46:55;;;;;;;1.33;0.70;;;;;;;23.45;47.20;101238.97;5172933;28;20103;-71
2023/06/04 05:49:26;;;;;;;2.15;0.90;;;;;;;21.70;51.31;101248.69;5153646;28;20293;-72
2023/06/04 05:51:56;;;;;;;1.58;0.90;;;;;;;20.80;52.70;101258.47;5172670;28;20056;-71
2023/06/04 05:54:28;;;;;;;3.87;0.90;;;;;;;19.53;55.13;101255.31;5168866;28;20297;-71
2023/06/04 05:56:58;;;;;;;3.72;0.93;;;;;;;19.20;56.93;101255.56;5173516;28;20300;-72
2023/06/04 05:59:29;;;;;;;2.05;0.82;;;;;;;18.32;59.64;101270.53;5171586;28;20018;-72
2023/06/04 06:02:00;;;;;;;1.65;0.95;;;;;;;17.93;61.52;101264.75;5174475;28;20044;-71
2023/06/04 06:04:31;;;;;;;3.55;1.63;;;;;;;18.37;61.29;101260.53;5170693;28;20030;-71
2023/06/04 06:07:01;;;;;;;3.03;1.00;;;;;;;19.43;58.95;101255.00;5170350;28;20029;-72
2023/06/04 06:09:31;;;;;;;2.58;0.90;;;;;;;18.96;60.11;101262.28;5166975;28;20490;-72
2023/06/04 06:12:02;;;;;;;7.25;1.08;;;;;;;18.56;59.93;101262.06;5162679;28;20211;-72
2023/06/04 06:14:32;;;;;;;6.22;1.00;;;;;;;18.31;60.78;101261.72;5167141;28;20382;-72
2023/06/04 06:17:04;;;;;;;2.17;0.77;;;;;;;18.10;61.92;101268.19;5167302;28;20065;-72
2023/06/04 06:19:37;;;;;;;2.95;0.95;;;;;;;18.84;61.06;101265.66;5170239;28;20444;-72
2023/06/04 06:22:07;;;;;;;3.63;0.80;;;;;;;19.76;58.67;101252.94;5172759;28;20313;-72
2023/06/04 06:24:39;;;;;;;1.65;1.10;;;;;;;20.46;56.60;101260.78;5170596;28;20065;-72
2023/06/04 06:27:12;;;;;;;5.40;0.98;;;;;;;20.73;56.44;101261.63;5172816;28;20041;-72
2023/06/04 06:29:43;;;;;;;3.30;1.30;;;;;;;21.19;55.27;101257.59;5172664;28;20022;-72
2023/06/04 06:32:14;;;;;;;1.80;0.75;;;;;;;20.18;58.74;101258.22;5172940;28;20033;-72
2023/06/04 06:34:44;;;;;;;2.70;1.00;;;;;;;21.30;55.43;101255.06;5170787;28;20034;-72
2023/06/04 06:37:14;;;;;;;2.50;0.90;;;;;;;21.59;55.67;101259.22;5167905;28;20222;-70
2023/06/04 06:39:45;;;;;;;1.95;0.80;;;;;;;21.25;55.23;101257.19;5169607;28;20454;-72
2023/06/04 06:42:17;;;;;;;1.40;1.08;;;;;;;20.48;56.51;101258.88;5163947;28;20030;-71
2023/06/04 06:44:47;;;;;;;2.47;0.80;;;;;;;21.42;56.89;101260.38;5169117;28;20049;-74
2023/06/04 06:47:17;;;;;;;2.20;0.90;;;;;;;21.41;57.02;101257.84;5170822;28;20018;-72
2023/06/04 06:49:47;;;;;;;2.40;1.00;;;;;;;22.17;54.27;101257.66;5172485;28;20856;-72
2023/06/04 06:52:19;;;;;;;2.60;1.03;;;;;;;21.48;55.02;101259.13;5170297;28;20364;-72
2023/06/04 06:54:50;;;;;;;2.72;0.82;;;;;;;22.59;53.72;101261.72;5163570;28;20285;-71
2023/06/04 06:57:20;;;;;;;4.47;0.90;;;;;;;24.30;52.39;101249.00;5163886;28;20030;-71
2023/06/04 06:59:53;;;;;;;2.47;0.80;;;;;;;24.42;50.70;101258.72;5161253;28;20388;-72
2023/06/04 07:02:24;;;;;;;1.92;0.90;;;;;;;24.34;50.06;101262.00;5161576;28;20038;-73
2023/06/04 07:04:54;;;;;;;2.22;0.82;;;;;;;24.94;49.22;101268.50;5167983;28;20024;-71
2023/06/04 07:07:24;;;;;;;1.70;1.00;;;;;;;24.80;48.61;101266.13;5161221;28;20026;-72
2023/06/04 07:09:54;;;;;;;1.70;0.80;;;;;;;24.93;49.19;101268.63;5170238;28;20391;-72
2023/06/04 07:12:25;;;;;;;1.55;0.80;;;;;;;25.25;47.99;101277.50;5172392;28;20276;-72
2023/06/04 07:14:55;;;;;;;3.63;0.80;;;;;;;25.25;47.78;101273.00;5173090;28;20506;-73
2023/06/04 07:17:26;;;;;;;2.47;0.90;;;;;;;26.59;46.11;101263.72;5172171;28;20566;-72
2023/06/04 07:19:56;;;;;;;1.80;0.90;;;;;;;25.66;46.50;101266.78;5173372;28;20518;-72
2023/06/04 07:22:26;;;;;;;4.27;1.13;;;;;;;26.17;45.40;101263.03;5169107;28;20317;-71
2023/06/04 07:24:57;;;;;;;2.60;0.83;;;;;;;26.61;44.45;101253.69;5173968;28;20277;-72
2023/06/04 07:27:27;;;;;;;3.00;0.90;;;;;;;26.39;42.88;101256.59;5171846;28;20603;-72
2023/06/04 07:29:58;;;;;;;1.60;0.75;;;;;;;26.78;43.07;101248.50;5173266;28;20056;-72
2023/06/04 07:32:28;;;;;;;2.53;0.80;;;;;;;27.55;42.11;101239.34;5173125;28;20173;-72
2023/06/04 07:34:58;;;;;;;2.43;0.90;;;;;;;27.26;41.87;101250.16;5171843;28;20033;-72
2023/06/04 07:37:28;;;;;;;1.30;0.70;;;;;;;27.52;41.30;101251.25;5172805;28;20083;-72
2023/06/04 07:39:59;;;;;;;1.90;0.90;;;;;;;27.71;41.13;101251.22;5172958;28;21070;-73
2023/06/04 07:42:29;;;;;;;0.70;0.57;;;;;;;28.76;39.26;101248.78;5169179;28;20105;-72
2023/06/04 07:45:00;;;;;;;1.30;0.70;;;;;;;28.37;39.40;101249.19;5165103;28;20325;-72
2023/06/04 07:47:30;;;;;;;2.35;0.70;;;;;;;28.22;40.85;101245.28;5165646;28;20277;-73
2023/06/04 07:50:00;;;;;;;2.13;0.80;;;;;;;28.88;39.68;101245.69;5160595;28;20046;-73
2023/06/04 07:52:31;;;;;;;2.10;0.70;;;;;;;28.87;39.74;101245.84;5165277;28;20468;-73
2023/06/04 07:55:01;;;;;;;3.05;0.75;;;;;;;29.55;37.98;101250.47;5168704;28;20030;-73
2023/06/04 07:57:32;;;;;;;1.77;0.65;;;;;;;28.40;40.24;101257.81;5171864;28;20033;-73
2023/06/04 08:00:04;;;;;;;1.13;0.60;;;;;;;28.01;40.21;101259.00;5166639;28;20369;-73
2023/06/04 08:02:34;;;;;;;2.22;0.90;;;;;;;28.78;39.73;101252.16;5163308;28;20522;-73
2023/06/04 08:05:05;;;;;;;1.07;0.50;;;;;;;28.62;39.78;101252.00;5167782;28;20038;-74
2023/06/04 08:07:35;;;;;;;2.33;0.70;;;;;;;29.83;37.96;101254.66;5168964;28;20030;-73
2023/06/04 08:10:06;;;;;;;1.52;0.77;;;;;;;29.44;38.22;101265.00;5170502;28;20054;-74
2023/06/04 08:12:36;;;;;;;1.85;0.70;;;;;;;29.22;37.97;101260.13;5173392;28;20034;-73
2023/06/04 08:15:07;;;;;;;1.20;0.67;;;;;;;28.98;39.09;101267.16;5163162;28;20034;-74
2023/06/04 08:17:37;;;;;;;2.58;0.50;;;;;;;28.90;39.01;101265.25;5158577;28;20277;-73
2023/06/04 08:20:11;;;;;;;0.68;0.50;;;;;;;30.47;36.75;101268.44;5162084;28;20017;-73
2023/06/04 08:22:41;;;;;;;2.33;0.75;;;;;;;28.43;38.10;101273.66;5165710;28;20163;-73
2023/06/04 08:25:13;;;;;;;2.45;0.80;;;;;;;30.34;37.20;101268.03;5172547;28;20326;-73
2023/06/04 08:27:44;;;;;;;1.35;0.60;;;;;;;29.69;36.87;101268.72;5170392;28;20037;-73
2023/06/04 08:30:14;;;;;;;1.08;0.50;;;;;;;28.74;37.33;101266.91;5171203;28;20036;-73
2023/06/04 08:32:45;;;;;;;1.00;0.60;;;;;;;27.95;37.73;101270.34;5164366;28;20029;-74
2023/06/04 08:35:15;;;;;;;2.45;0.60;;;;;;;28.54;37.99;101262.69;5162130;28;20021;-74
2023/06/04 08:37:45;;;;;;;2.38;0.65;;;;;;;27.91;38.73;101266.25;5161392;28;20026;-73
2023/06/04 08:40:16;;;;;;;0.83;0.53;;;;;;;29.73;36.95;101262.03;5163796;28;20237;-74
2023/06/04 08:42:47;;;;;;;0.82;0.50;;;;;;;30.65;36.00;101263.78;5167619;28;20061;-73
2023/06/04 08:45:20;;;;;;;0.60;0.40;;;;;;;28.57;35.96;101277.66;5154190;28;20026;-74
2023/06/04 08:47:50;;;;;;;4.45;0.60;;;;;;;28.52;35.56;101278.13;5163145;28;20113;-73
2023/06/04 08:50:23;;;;;;;2.05;0.60;;;;;;;29.77;36.43;101274.19;5163424;28;20032;-74
2023/06/04 08:52:56;;;;;;;1.08;0.47;;;;;;;29.47;36.42;101267.44;5161630;28;20040;-74
2023/06/04 08:55:26;;;;;;;1.92;0.60;;;;;;;29.55;35.32;101266.66;5154127;28;20030;-72
2023/06/04 08:57:57;;;;;;;1.25;0.60;;;;;;;31.23;34.53;101255.38;5152783;28;20804;-72
2023/06/04 09:00:27;;;;;;;1.52;0.60;;;;;;;29.77;35.54;101266.09;5152954;28;20519;-73
2023/06/04 09:02:58;;;;;;;1.07;0.70;;;;;;;28.33;35.95;101269.34;5151910;28;20038;-72
2023/06/04 09:05:29;;;;;;;0.82;0.50;;;;;;;28.19;36.42;101270.66;5160018;28;20064;-72
2023/06/04 09:08:01;;;;;;;1.67;0.60;;;;;;;28.09;37.57;101269.84;5147585;28;20044;-73
2023/06/04 09:10:33;;;;;;;2.95;0.60;;;;;;;28.19;37.52;101270.66;5158347;28;20057;-72
2023/06/04 09:13:06;;;;;;;1.30;0.70;;;;;;;29.62;34.81;101262.28;5160372;28;20061;-73
2023/06/04 09:15:36;;;;;;;0.88;0.60;;;;;;;30.42;34.21;101268.09;5158933;28;20080;-73
2023/06/04 09:18:07;;;;;;;1.85;0.75;;;;;;;31.00;32.80;101264.31;5160040;28;20045;-72
2023/06/04 09:20:37;;;;;;;1.00;0.55;;;;;;;29.25;34.80;101275.16;5161604;28;20022;-73
2023/06/04 09:23:15;;;;;;;1.27;0.60;;;;;;;29.10;35.04;101282.09;5163011;28;20026;-72
2023/06/04 09:25:45;;;;;;;1.13;0.60;;;;;;;26.68;37.01;101284.38;5165814;28;20026;-72
2023/06/04 09:28:16;;;;;;;1.20;0.60;;;;;;;29.12;35.01;101270.16;5163389;28;20530;-72
2023/06/04 09:30:53;;;;;;;0.80;0.55;;;;;;;29.73;34.54;101264.72;5159335;28;20105;-72
2023/06/04 09:33:26;;;;;;;2.92;0.70;;;;;;;30.35;33.81;101256.25;5145407;28;20034;-72
2023/06/04 09:35:57;;;;;;;1.05;0.60;;;;;;;30.17;34.52;101258.22;5156720;28;20065;-72
2023/06/04 09:38:37;;;;;;;2.05;0.60;;;;;;;30.32;34.25;101251.19;5148350;28;20047;-72
2023/06/04 09:41:11;;;;;;;4.30;0.65;;;;;;;29.10;35.29;101272.16;5152350;28;20025;-72
2023/06/04 09:43:43;;;;;;;0.88;0.50;;;;;;;27.94;37.48;101263.28;5160069;28;20035;-73
2023/06/04 09:46:15;;;;;;;2.47;0.68;;;;;;;29.08;35.18;101257.16;5151640;28;20134;-72
2023/06/04 09:48:46;;;;;;;2.83;0.60;;;;;;;29.73;35.29;101252.06;5162185;28;20049;-73
2023/06/04 09:51:19;;;;;;;1.73;0.60;;;;;;;29.92;35.09;101253.69;5159301;28;20034;-73
2023/06/04 09:53:57;;;;;;;1.33;0.70;;;;;;;28.28;36.52;101259.00;5189401;23;20053;-76
2023/06/04 09:56:28;;;;;;;2.30;0.75;;;;;;;29.61;35.42;101253.34;5200114;28;20108;-72
2023/06/04 09:59:02;;;;;;;1.85;0.70;;;;;;;29.67;35.31;101251.88;5198440;28;20044;-74
2023/06/04 10:01:34;;;;;;;4.45;0.93;;;;;;;29.82;35.19;101255.66;5203925;28;20033;-76
2023/06/04 10:04:07;;;;;;;2.03;0.60;;;;;;;30.46;33.83;101250.53;5199390;28;20033;-75
2023/06/04 10:06:38;;;;;;;1.42;0.60;;;;;;;28.90;35.55;101259.03;5186349;28;20476;-75
2023/06/04 10:09:09;;;;;;;2.00;0.60;;;;;;;28.55;36.65;101253.63;5181637;28;20128;-72
2023/06/04 10:11:56;;;;;;;0.70;0.50;;;;;;;27.06;37.38;101261.91;5183901;28;20056;-75
2023/06/04 10:14:35;;;;;;;2.78;0.70;;;;;;;26.31;39.24;101269.88;5189984;28;20033;-73
2023/06/04 10:17:07;;;;;;;3.42;0.80;;;;;;;25.67;39.59;101263.94;5185857;28;20036;-77
2023/06/04 10:19:38;;;;;;;2.40;0.77;;;;;;;25.75;39.42;101265.94;5191237;28;20037;-74
2023/06/04 10:22:11;;;;;;;0.73;0.52;;;;;;;25.52;39.15;101273.28;5185787;28;20108;-72
2023/06/04 10:24:43;;;;;;;2.47;0.70;;;;;;;25.60;39.74;101267.28;5178698;28;20103;-74
2023/06/04 10:27:14;;;;;;;1.50;0.70;;;;;;;25.65;40.50;101257.88;5188913;28;20262;-72
2023/06/04 10:29:45;;;;;;;0.85;0.50;;;;;;;24.89;40.20;101259.16;5186032;28;20049;-73
2023/06/04 10:32:17;;;;;;;1.27;0.57;;;;;;;25.56;40.44;101255.16;5180369;28;20021;-75
2023/06/04 10:34:48;;;;;;;5.82;0.80;;;;;;;25.27;41.52;101256.78;5178997;28;20034;-75
2023/06/04 10:37:29;;;;;;;3.10;0.70;;;;;;;25.24;38.61;101259.75;5189438;28;20033;-75
2023/06/04 10:39:59;;;;;;;1.00;0.60;;;;;;;23.93;41.71;101263.63;5189102;28;20014;-75
2023/06/04 10:42:41;;;;;;;1.40;0.70;;;;;;;24.01;41.42;101256.72;5187753;28;20110;-73
2023/06/04 10:45:11;;;;;;;2.08;0.60;;;;;;;24.16;41.31;101262.63;5186826;28;20029;-74
2023/06/04 10:47:43;;;;;;;2.40;0.77;;;;;;;24.52;40.76;101257.84;5177699;28;20040;-75
2023/06/04 10:50:14;;;;;;;1.17;0.70;;;;;;;24.86;39.80;101260.28;5174972;28;20925;-75
2023/06/04 10:52:52;;;;;;;1.77;0.70;;;;;;;24.97;39.67;101256.72;5178641;28;20037;-76
2023/06/04 10:55:23;;;;;;;1.25;0.40;;;;;;;24.78;41.47;101246.69;5174901;28;20430;-73
2023/06/04 10:57:58;;;;;;;1.27;0.65;;;;;;;25.22;41.67;101240.28;5179858;28;20088;-72
2023/06/04 11:00:42;;;;;;;4.90;1.67;;;;;;;24.97;41.42;101254.03;5165038;28;20033;-73
2023/06/04 11:03:13;;;;;;;2.78;0.70;;;;;;;24.49;41.39;101255.41;5177555;28;20519;-75
2023/06/04 11:05:46;;;;;;;1.65;0.82;;;;;;;24.77;41.75;101244.16;5179961;28;20400;-75
2023/06/04 11:08:28;;;;;;;2.25;0.63;;;;;;;24.61;42.37;101257.13;5179466;28;20120;-75
2023/06/04 11:10:58;;;;;;;2.05;0.70;;;;;;;24.72;41.62;101249.03;5182469;28;20083;-73
2023/06/04 11:13:29;;;;;;;2.97;1.20;;;;;;;24.71;41.25;101241.97;5184448;28;20441;-70
2023/06/04 11:15:59;;;;;;;1.00;0.60;;;;;;;24.74;41.86;101239.03;5185697;28;20282;-73
2023/06/04 11:18:30;;;;;;;2.80;0.47;;;;;;;24.77;40.69;101246.84;5185212;28;20124;-71
2023/06/04 11:21:03;;;;;;;1.27;0.52;;;;;;;24.57;40.58;101247.63;5184759;28;20025;-74
2023/06/04 11:23:34;;;;;;;3.15;0.50;;;;;;;24.54;40.79;101245.22;5185383;28;20077;-74
2023/06/04 11:26:04;;;;;;;2.45;0.82;;;;;;;24.67;41.18;101238.72;5184197;28;20125;-75
2023/06/04 11:28:35;;;;;;;1.85;0.73;;;;;;;24.73;41.31;101242.69;5186127;28;20130;-72
2023/06/04 11:31:05;;;;;;;2.90;0.70;;;;;;;24.37;41.40;101239.53;5185322;28;20037;-74
2023/06/04 11:33:46;;;;;;;3.47;0.80;;;;;;;24.63;40.91;101235.56;5178994;28;20038;-71
2023/06/04 11:36:26;;;;;;;1.90;0.70;;;;;;;24.65;41.13;101237.16;5186218;28;20044;-71
2023/06/04 11:39:02;;;;;;;1.45;0.60;;;;;;;24.42;41.23;101230.13;5179954;28;20065;-75
2023/06/04 11:41:35;;;;;;;1.38;0.70;;;;;;;24.82;41.25;101231.25;5188149;28;20033;-74
2023/06/04 11:44:06;;;;;;;1.95;0.70;;;;;;;24.73;41.11;101226.66;5182848;28;20038;-75
2023/06/04 11:46:40;;;;;;;1.17;0.52;;;;;;;24.71;41.57;101228.63;5187264;28;20088;-72